Howard City, MI

1:55 PM EST on January 21, 2017 (GMT -0500)
Smits Residence | | Change Station

Elev 925 ft 43.40 °N, 85.40 °W | Updated 8 seconds ago

Fog
Fog
46.5 °F
Feels Like 44 °F
N
5.0
Wind Variable Wind from ESE

Today
High -- | Low -- °F
--% Chance of Precip.
Yesterday
High -- | Low -- °F
Precip. -- in
Pressure 29.54 in
Visibility 0.2 miles
Clouds Overcast 200 ft
Windchill 44 °F
Dew Point 46 °F
Humidity 98%
Rainfall 0.05 in
Snow Depth Not available.
8:07 AM 5:39 PM
Waning Crescent, 33% visible
METAR KRQB 211834Z AUTO 13004KT M1/4SM FG OVC002 06/06 A2954 RMK AO2 T00600055
Pressure 29.54 in
Visibility 0.2 miles
Clouds Overcast 200 ft
Windchill 44 °F
Dew Point 46 °F
Humidity 98%
Rainfall 0.05 in
Snow Depth Not available.
8:07 AM 5:39 PM
Waning Crescent, 33% visible
METAR KRQB 211834Z AUTO 13004KT M1/4SM FG OVC002 06/06 A2954 RMK AO2 T00600055

Get Your Daily Forecast Email!

Thanks for signing up!

Be on the lookout for a verification email in your inbox.

You'll start receiving the daily forecast at 8 AM.

×

10-Day Weather Forecast

Almanac

Astronomy

Jan. 21, 2017 Rise Set
Actual Time
Civil Twilight
Nautical Twilight
Astronomical Twilight
Moon
Length of Visible Light
Length of Day
Tomorrow will be .
, % of the Moon is Illuminated

Today's Extremes

State Highs State Lows

Community

WunderPhotos

Upload Photos

1,962,540 photos uploaded!

WunderBlog® & News

Nearby

Air Quality

  Air Quality AQ Index Pollutant
Not available.

Snow Depth

Station Depth Elevation

Earthquake Activity

City Distance Mag. Time & Date
Minimum magnitude displayed is 2.5.

Coastal Water Temperatures

Place Temperature

Stations

Nearby Weather Stations

Station Location Temp. Windchill Dew Point Humidity Wind Precip. Elev Updated Type
                   

Watches & Warnings

There are currently no watches in effect.